createdAt,value
2023-05-21T00:02:11.918Z,12.75
2023-05-21T00:04:40.946Z,9.63
2023-05-21T00:07:10.956Z,10.60
2023-05-21T00:09:39.745Z,9.98
2023-05-21T00:12:09.571Z,9.95
2023-05-21T00:14:38.265Z,11.02
2023-05-21T00:17:07.037Z,9.95
2023-05-21T00:19:35.944Z,10.82
2023-05-21T00:22:04.612Z,9.38
2023-05-21T00:24:34.616Z,10.95
2023-05-21T00:27:03.198Z,11.80
2023-05-21T00:29:31.812Z,9.15
2023-05-21T00:32:00.463Z,12.02
2023-05-21T00:34:29.614Z,9.48
2023-05-21T00:36:58.172Z,9.40
2023-05-21T00:39:27.040Z,9.57
2023-05-21T00:41:57.891Z,9.90
2023-05-21T00:44:27.091Z,11.70
2023-05-21T00:46:55.845Z,11.68
2023-05-21T00:49:25.892Z,10.93
2023-05-21T00:51:54.862Z,12.18
2023-05-21T00:54:24.655Z,8.95
2023-05-21T00:56:53.559Z,10.73
2023-05-21T00:59:24.619Z,10.57
2023-05-21T01:01:56.242Z,9.73
2023-05-21T01:04:25.214Z,9.20
2023-05-21T01:06:56.224Z,9.73
2023-05-21T01:09:25.171Z,11.50
2023-05-21T01:11:54.890Z,10.70
2023-05-21T01:14:25.951Z,10.10
2023-05-21T01:16:55.110Z,10.35
2023-05-21T01:19:25.360Z,10.77
2023-05-21T01:22:01.438Z,9.27
2023-05-21T01:24:31.584Z,10.82
2023-05-21T01:27:02.017Z,10.48
2023-05-21T01:29:30.764Z,10.60
2023-05-21T01:32:06.669Z,11.05
2023-05-21T01:34:42.969Z,10.90
2023-05-21T01:37:26.352Z,12.63
2023-05-21T01:40:01.255Z,12.50
2023-05-21T01:42:31.764Z,10.32
2023-05-21T01:45:02.692Z,12.88
2023-05-21T01:47:34.805Z,10.50
2023-05-21T01:50:04.547Z,14.40
2023-05-21T01:52:33.240Z,11.13
2023-05-21T01:55:04.155Z,15.85
2023-05-21T01:57:32.927Z,10.80
2023-05-21T02:00:02.068Z,12.75
2023-05-21T02:02:31.757Z,13.43
2023-05-21T02:05:01.755Z,14.27
2023-05-21T02:07:32.788Z,11.70
2023-05-21T02:10:04.961Z,11.25
2023-05-21T02:12:33.986Z,12.27
2023-05-21T02:15:03.844Z,10.88
2023-05-21T02:17:34.136Z,11.18
2023-05-21T02:20:11.418Z,11.75
2023-05-21T02:22:40.387Z,14.35
2023-05-21T02:25:11.868Z,13.55
2023-05-21T02:27:42.523Z,12.55
2023-05-21T02:30:12.858Z,12.13
2023-05-21T02:32:42.999Z,13.07
2023-05-21T02:35:13.999Z,13.45
2023-05-21T02:37:43.974Z,16.33
2023-05-21T02:40:14.669Z,11.68
2023-05-21T02:42:43.431Z,14.00
2023-05-21T02:45:16.753Z,14.50
2023-05-21T02:47:45.991Z,14.02
2023-05-21T02:50:17.135Z,13.18
2023-05-21T02:52:52.341Z,13.63
2023-05-21T02:55:22.714Z,15.25
2023-05-21T02:57:51.906Z,14.70
2023-05-21T03:00:20.776Z,12.38
2023-05-21T03:02:49.501Z,12.40
2023-05-21T03:05:18.184Z,13.88
2023-05-21T03:07:46.914Z,14.85
2023-05-21T03:10:16.451Z,15.27
2023-05-21T03:12:47.980Z,14.82
2023-05-21T03:15:18.214Z,14.48
2023-05-21T03:17:48.226Z,13.27
2023-05-21T03:20:18.941Z,15.50
2023-05-21T03:22:48.304Z,16.52
2023-05-21T03:25:17.040Z,17.42
2023-05-21T03:27:47.141Z,18.38
2023-05-21T03:30:38.314Z,13.98
2023-05-21T03:33:39.037Z,14.25
2023-05-21T03:36:19.752Z,15.25
2023-05-21T03:38:48.544Z,15.70
2023-05-21T03:41:17.366Z,14.63
2023-05-21T03:43:51.841Z,14.48
2023-05-21T03:46:23.000Z,17.17
2023-05-21T03:49:05.418Z,15.30
2023-05-21T03:51:36.071Z,14.38
2023-05-21T03:54:04.755Z,14.07
2023-05-21T03:56:34.195Z,14.30
2023-05-21T03:59:06.373Z,14.35
2023-05-21T04:01:36.266Z,15.57
2023-05-21T04:04:05.115Z,15.43
2023-05-21T04:06:34.929Z,14.30
2023-05-21T04:09:04.700Z,16.27
2023-05-21T04:11:33.515Z,13.60
2023-05-21T04:14:02.966Z,17.60
2023-05-21T04:16:35.094Z,15.43
2023-05-21T04:19:03.887Z,13.60
2023-05-21T04:21:32.923Z,14.82
2023-05-21T04:24:01.793Z,15.32
2023-05-21T04:26:44.653Z,16.75
2023-05-21T04:29:13.380Z,16.38
2023-05-21T04:31:43.521Z,16.38
2023-05-21T04:34:12.288Z,16.67
2023-05-21T04:36:41.831Z,16.77
2023-05-21T04:39:10.493Z,21.65
2023-05-21T04:41:39.521Z,15.57
2023-05-21T04:44:08.810Z,16.17
2023-05-21T04:46:38.926Z,16.40
2023-05-21T04:49:11.562Z,19.08
2023-05-21T04:51:40.747Z,15.32
2023-05-21T04:54:09.441Z,18.30
2023-05-21T04:56:38.074Z,16.27
2023-05-21T04:59:07.413Z,18.90
2023-05-21T05:01:38.618Z,16.65
2023-05-21T05:04:07.823Z,17.25
2023-05-21T05:06:37.875Z,20.58
2023-05-21T05:09:07.473Z,19.23
2023-05-21T05:11:36.061Z,15.55
2023-05-21T05:14:04.701Z,21.70
2023-05-21T05:16:35.546Z,17.73
2023-05-21T05:19:04.489Z,17.42
2023-05-21T05:21:33.304Z,18.85
2023-05-21T05:24:03.778Z,15.48
2023-05-21T05:26:33.928Z,18.23
2023-05-21T05:29:02.788Z,16.60
2023-05-21T05:31:31.580Z,20.13
2023-05-21T05:34:00.439Z,16.73
2023-05-21T05:36:33.729Z,17.85
2023-05-21T05:39:03.783Z,17.70
2023-05-21T05:41:32.528Z,17.35
2023-05-21T05:44:01.256Z,15.88
2023-05-21T05:46:33.421Z,15.30
2023-05-21T05:49:02.104Z,17.58
2023-05-21T05:51:31.797Z,17.13
2023-05-21T05:54:00.899Z,17.02
2023-05-21T05:56:31.637Z,15.75
2023-05-21T05:59:00.522Z,15.07
2023-05-21T06:01:30.146Z,14.95
2023-05-21T06:03:59.174Z,14.73
2023-05-21T06:06:27.966Z,15.38
2023-05-21T06:08:56.663Z,14.73
2023-05-21T06:11:25.760Z,14.80
2023-05-21T06:13:56.096Z,17.17
2023-05-21T06:16:24.889Z,12.48
2023-05-21T06:18:54.865Z,15.23
2023-05-21T06:21:23.600Z,17.58
2023-05-21T06:23:52.493Z,13.65
2023-05-21T06:26:22.146Z,15.48
2023-05-21T06:28:52.654Z,14.35
2023-05-21T06:31:28.171Z,14.15
2023-05-21T06:33:57.194Z,14.48
2023-05-21T06:36:29.786Z,13.30
2023-05-21T06:38:59.259Z,13.30
2023-05-21T06:41:28.044Z,15.55
2023-05-21T06:43:59.861Z,16.67
2023-05-21T06:46:48.422Z,14.68
2023-05-21T06:49:17.183Z,13.73
2023-05-21T06:51:46.212Z,17.48
2023-05-21T06:54:15.446Z,14.43
2023-05-21T06:56:44.559Z,17.40
2023-05-21T06:59:13.392Z,15.45
2023-05-21T07:01:44.198Z,14.60
2023-05-21T07:04:14.653Z,13.43
2023-05-21T07:06:44.833Z,16.42
2023-05-21T07:09:14.148Z,15.50
2023-05-21T07:11:43.337Z,14.60
2023-05-21T07:14:12.655Z,17.25
2023-05-21T07:16:41.313Z,14.90
2023-05-21T07:19:10.612Z,15.05
2023-05-21T07:21:41.391Z,15.32
2023-05-21T07:24:10.063Z,15.05
2023-05-21T07:26:41.557Z,14.52
2023-05-21T07:29:10.491Z,14.32
2023-05-21T07:31:39.314Z,12.75
2023-05-21T07:34:08.725Z,15.98
2023-05-21T07:36:37.539Z,15.13
2023-05-21T07:39:07.810Z,15.75
2023-05-21T07:41:37.012Z,15.65
2023-05-21T07:44:09.337Z,13.18
2023-05-21T07:46:42.027Z,13.90
2023-05-21T07:49:16.752Z,14.02
2023-05-21T07:51:47.211Z,21.48
2023-05-21T07:54:19.754Z,13.95
2023-05-21T07:56:48.520Z,14.23
2023-05-21T07:59:33.707Z,16.38
2023-05-21T08:02:02.740Z,15.45
2023-05-21T08:04:31.631Z,13.57
2023-05-21T08:07:00.512Z,13.20
2023-05-21T08:09:32.179Z,14.05
2023-05-21T08:12:01.053Z,17.33
2023-05-21T08:14:30.066Z,13.63
2023-05-21T08:16:58.874Z,14.13
2023-05-21T08:19:27.702Z,15.75
2023-05-21T08:21:56.483Z,13.35
2023-05-21T08:24:26.386Z,14.50
2023-05-21T08:26:56.369Z,15.13
2023-05-21T08:29:25.065Z,15.57
2023-05-21T08:31:55.155Z,13.57
2023-05-21T08:34:23.798Z,15.40
2023-05-21T08:37:03.541Z,13.45
2023-05-21T08:39:50.614Z,16.23
2023-05-21T08:42:37.063Z,14.60
2023-05-21T08:45:07.754Z,15.80
2023-05-21T08:47:37.315Z,16.02
2023-05-21T08:50:10.970Z,12.95
2023-05-21T08:52:40.141Z,15.52
2023-05-21T08:55:10.256Z,13.07
2023-05-21T08:57:45.344Z,18.20
2023-05-21T09:00:17.267Z,13.43
2023-05-21T09:02:46.526Z,13.05
2023-05-21T09:05:17.501Z,13.18
2023-05-21T09:08:01.820Z,15.25
2023-05-21T09:10:54.237Z,13.10
2023-05-21T09:13:28.752Z,16.05
2023-05-21T09:15:57.597Z,14.95
2023-05-21T09:18:27.960Z,13.65
2023-05-21T09:21:24.827Z,17.15
2023-05-21T09:23:56.950Z,15.50
2023-05-21T09:26:26.590Z,15.38
2023-05-21T09:29:01.922Z,15.30
2023-05-21T09:31:31.100Z,14.88
2023-05-21T09:33:59.703Z,13.23
2023-05-21T09:36:29.381Z,13.55
2023-05-21T09:38:59.981Z,15.85
2023-05-21T09:41:36.173Z,13.57
2023-05-21T09:44:07.629Z,14.05
2023-05-21T09:46:41.479Z,15.93
2023-05-21T09:49:23.953Z,13.75
2023-05-21T09:51:56.925Z,17.33
2023-05-21T09:54:31.748Z,15.70
2023-05-21T09:57:02.460Z,18.67
2023-05-21T09:59:39.610Z,18.52
2023-05-21T10:02:20.170Z,16.65
2023-05-21T10:04:50.942Z,19.85
2023-05-21T10:07:21.711Z,14.15
2023-05-21T10:09:50.983Z,15.65
2023-05-21T10:12:20.005Z,13.77
2023-05-21T10:14:55.496Z,15.48
2023-05-21T10:17:25.800Z,17.05
2023-05-21T10:19:56.726Z,13.65
2023-05-21T10:22:26.708Z,13.45
2023-05-21T10:24:55.961Z,15.77
2023-05-21T10:27:24.732Z,22.63
2023-05-21T10:29:57.801Z,16.15
2023-05-21T10:32:28.580Z,15.43
2023-05-21T10:35:00.716Z,18.48
2023-05-21T10:37:30.625Z,15.23
2023-05-21T10:39:59.295Z,14.98
2023-05-21T10:43:03.630Z,16.67
2023-05-21T10:45:52.073Z,15.30
2023-05-21T10:48:33.681Z,13.98
2023-05-21T10:51:19.638Z,16.15
2023-05-21T10:54:15.074Z,15.57
2023-05-21T10:56:47.760Z,15.18
2023-05-21T10:59:32.218Z,14.77
2023-05-21T11:02:02.592Z,17.58
2023-05-21T11:04:31.458Z,14.05
2023-05-21T11:07:00.236Z,12.38
2023-05-21T11:09:28.768Z,12.93
2023-05-21T11:12:04.656Z,13.48
2023-05-21T11:14:39.154Z,14.15
2023-05-21T11:17:38.257Z,14.30
2023-05-21T11:20:11.125Z,16.85
2023-05-21T11:22:39.772Z,16.45
2023-05-21T11:25:08.981Z,12.98
2023-05-21T11:27:38.767Z,16.23
2023-05-21T11:30:09.407Z,16.00
2023-05-21T11:32:40.972Z,14.05
2023-05-21T11:35:09.989Z,15.98
2023-05-21T11:37:41.568Z,13.90
2023-05-21T11:40:23.972Z,15.32
2023-05-21T11:42:57.272Z,14.18
2023-05-21T11:45:30.864Z,16.67
2023-05-21T11:48:01.732Z,15.10
2023-05-21T11:50:33.687Z,13.73
2023-05-21T11:53:02.633Z,15.48
2023-05-21T11:55:32.071Z,12.27
2023-05-21T11:58:01.719Z,11.82
2023-05-21T12:00:30.390Z,11.25
2023-05-21T12:03:01.973Z,13.00
2023-05-21T12:05:30.737Z,14.55
2023-05-21T12:07:59.389Z,13.07
2023-05-21T12:10:27.977Z,13.32
2023-05-21T12:12:57.559Z,13.10
2023-05-21T12:15:27.845Z,12.00
2023-05-21T12:17:57.879Z,12.23
2023-05-21T12:20:30.800Z,14.88
2023-05-21T12:23:00.501Z,12.02
2023-05-21T12:25:30.388Z,13.48
2023-05-21T12:28:01.426Z,11.68
2023-05-21T12:30:30.753Z,12.48
2023-05-21T12:33:02.187Z,11.40
2023-05-21T12:35:32.931Z,11.90
2023-05-21T12:38:04.974Z,14.80
2023-05-21T12:40:38.643Z,13.63
2023-05-21T12:43:09.316Z,12.23
2023-05-21T12:45:40.761Z,10.57
2023-05-21T12:48:09.854Z,11.82
2023-05-21T12:50:42.266Z,12.43
2023-05-21T12:53:12.704Z,11.55
2023-05-21T12:55:41.617Z,11.38
2023-05-21T12:58:14.984Z,11.38
2023-05-21T13:00:44.456Z,11.23
2023-05-21T13:03:14.933Z,11.70
2023-05-21T13:05:45.473Z,11.48
2023-05-21T13:08:15.510Z,11.27
2023-05-21T13:10:44.307Z,13.57
2023-05-21T13:13:12.891Z,11.93
2023-05-21T13:15:41.573Z,10.63
2023-05-21T13:18:12.443Z,11.52
2023-05-21T13:20:41.219Z,14.43
2023-05-21T13:23:11.922Z,11.57
2023-05-21T13:25:40.704Z,11.65
2023-05-21T13:28:10.415Z,14.02
2023-05-21T13:30:39.279Z,14.55
2023-05-21T13:33:08.501Z,11.55
2023-05-21T13:35:37.589Z,10.45
2023-05-21T13:38:06.320Z,14.80
2023-05-21T13:40:38.823Z,10.40
2023-05-21T13:43:08.139Z,11.32
2023-05-21T13:45:36.819Z,11.57
2023-05-21T13:48:06.437Z,12.95
2023-05-21T13:50:35.335Z,11.82
2023-05-21T13:53:04.151Z,12.38
2023-05-21T13:55:32.839Z,12.02
2023-05-21T13:58:02.816Z,11.30
2023-05-21T14:00:31.780Z,11.40
2023-05-21T14:03:00.541Z,11.18
2023-05-21T14:05:29.388Z,11.27
2023-05-21T14:07:57.954Z,11.93
2023-05-21T14:10:27.492Z,11.85
2023-05-21T14:13:04.326Z,11.13
2023-05-21T14:15:41.684Z,9.88
2023-05-21T14:18:12.322Z,13.80
2023-05-21T14:20:41.063Z,10.63
2023-05-21T14:23:14.136Z,12.00
2023-05-21T14:25:43.068Z,10.57
2023-05-21T14:28:11.823Z,12.25
2023-05-21T14:30:42.042Z,11.35
2023-05-21T14:33:11.565Z,12.07
2023-05-21T14:35:41.493Z,11.75
2023-05-21T14:38:10.271Z,11.55
2023-05-21T14:40:38.996Z,10.95
2023-05-21T14:43:07.657Z,10.68
2023-05-21T14:45:36.494Z,11.10
2023-05-21T14:48:08.678Z,11.68
2023-05-21T14:50:37.469Z,11.77
2023-05-21T14:53:06.774Z,11.25
2023-05-21T14:55:37.266Z,11.90
2023-05-21T14:58:07.070Z,11.00
2023-05-21T15:00:38.342Z,11.05
2023-05-21T15:03:08.736Z,11.25
2023-05-21T15:05:37.874Z,11.50
2023-05-21T15:08:08.126Z,11.85
2023-05-21T15:10:36.735Z,12.02
2023-05-21T15:13:05.523Z,11.80
2023-05-21T15:15:34.361Z,12.15
2023-05-21T15:18:03.160Z,12.07
2023-05-21T15:20:33.189Z,12.23
2023-05-21T15:25:33.762Z,13.35
2023-05-21T15:28:02.425Z,12.27
2023-05-21T15:30:31.160Z,12.52
2023-05-21T15:32:59.813Z,13.48
2023-05-21T15:35:28.604Z,11.85
2023-05-21T15:37:58.670Z,11.63
2023-05-21T15:40:27.504Z,12.23
2023-05-21T15:42:56.195Z,11.63
2023-05-21T15:45:25.670Z,13.75
2023-05-21T15:47:54.371Z,11.55
2023-05-21T15:50:23.118Z,13.43
2023-05-21T15:52:53.312Z,10.98
2023-05-21T15:55:23.939Z,12.27
2023-05-21T15:57:52.544Z,11.52
2023-05-21T16:00:21.499Z,12.38
2023-05-21T16:02:50.384Z,11.48
2023-05-21T16:05:19.080Z,13.20
2023-05-21T16:07:47.674Z,12.10
2023-05-21T16:10:16.482Z,11.70
2023-05-21T16:12:46.544Z,13.07
2023-05-21T16:15:15.220Z,12.00
2023-05-21T16:17:43.882Z,11.57
2023-05-21T16:20:13.632Z,11.98
2023-05-21T16:22:42.304Z,12.35
2023-05-21T16:25:11.011Z,11.60
2023-05-21T16:27:39.688Z,14.90
2023-05-21T16:30:11.925Z,8.68
2023-05-21T16:32:40.930Z,9.98
2023-05-21T16:35:09.792Z,7.80
2023-05-21T16:37:38.457Z,7.30
2023-05-21T16:40:08.371Z,7.13
2023-05-21T16:42:37.091Z,8.23
2023-05-21T16:45:06.436Z,6.57
2023-05-21T16:47:36.362Z,6.72
2023-05-21T16:50:05.653Z,7.53
2023-05-21T16:52:34.266Z,7.57
2023-05-21T16:55:03.495Z,8.05
2023-05-21T16:57:32.199Z,9.05
2023-05-21T17:00:01.905Z,8.18
2023-05-21T17:02:30.712Z,9.48
2023-05-21T17:05:00.992Z,9.90
2023-05-21T17:07:29.703Z,11.85
2023-05-21T17:09:58.445Z,10.30
2023-05-21T17:12:27.103Z,10.27
2023-05-21T17:14:55.861Z,9.73
2023-05-21T17:17:24.607Z,9.23
2023-05-21T17:19:53.254Z,9.40
2023-05-21T17:22:23.587Z,8.95
2023-05-21T17:24:52.193Z,10.70
2023-05-21T17:27:20.967Z,11.73
2023-05-21T17:29:49.666Z,7.90
2023-05-21T17:32:18.374Z,9.02
2023-05-21T17:34:47.025Z,8.55
2023-05-21T17:37:15.733Z,9.07
2023-05-21T17:39:46.119Z,8.63
2023-05-21T17:42:15.223Z,10.52
2023-05-21T17:44:44.204Z,10.05
2023-05-21T17:47:12.982Z,8.25
2023-05-21T17:49:41.697Z,9.10
2023-05-21T17:52:10.436Z,7.88
2023-05-21T17:54:39.016Z,8.55
2023-05-21T17:57:09.006Z,8.00
2023-05-21T17:59:40.270Z,10.05
2023-05-21T18:02:09.114Z,7.45
2023-05-21T18:04:37.790Z,7.35
2023-05-21T18:07:07.267Z,8.23
2023-05-21T18:09:35.990Z,6.93
2023-05-21T18:12:05.759Z,9.40
2023-05-21T18:14:36.031Z,9.00
2023-05-21T18:17:05.660Z,8.48
2023-05-21T18:19:34.616Z,7.75
2023-05-21T18:22:04.400Z,7.75
2023-05-21T18:24:33.022Z,8.98
2023-05-21T18:27:01.664Z,9.13
2023-05-21T18:29:30.364Z,8.93
2023-05-21T18:32:00.540Z,9.27
2023-05-21T18:34:29.210Z,9.50
2023-05-21T18:36:58.654Z,10.45
2023-05-21T18:39:28.069Z,10.68
2023-05-21T18:44:28.215Z,10.20
2023-05-21T18:46:57.687Z,10.63
2023-05-21T18:49:33.766Z,11.10
2023-05-21T18:52:02.514Z,10.65
2023-05-21T18:54:31.335Z,10.70
2023-05-21T18:57:00.681Z,14.10
2023-05-21T18:59:31.303Z,11.77
2023-05-21T19:01:59.993Z,11.85
2023-05-21T19:04:30.933Z,11.52
2023-05-21T19:06:59.626Z,11.50
2023-05-21T19:09:28.312Z,12.75
2023-05-21T19:11:57.274Z,12.30
2023-05-21T19:14:25.996Z,12.50
2023-05-21T19:16:54.723Z,12.88
2023-05-21T19:19:23.374Z,15.10
2023-05-21T19:21:53.822Z,12.88
2023-05-21T19:24:22.442Z,15.38
2023-05-21T19:26:51.004Z,13.90
2023-05-21T19:29:19.579Z,14.45
2023-05-21T19:31:48.363Z,13.50
2023-05-21T19:34:17.087Z,14.32
2023-05-21T19:36:53.418Z,13.30
2023-05-21T19:39:23.940Z,12.88
2023-05-21T19:41:52.909Z,13.23
2023-05-21T19:44:21.488Z,14.00
2023-05-21T19:46:50.119Z,13.95
2023-05-21T19:49:20.026Z,14.65
2023-05-21T19:51:49.590Z,15.32
2023-05-21T19:54:18.515Z,13.52
2023-05-21T19:56:48.530Z,14.48
2023-05-21T19:59:17.221Z,13.27
2023-05-21T20:01:46.423Z,14.52
2023-05-21T20:04:15.266Z,14.90
2023-05-21T20:06:43.935Z,14.30
2023-05-21T20:09:13.608Z,14.00
2023-05-21T20:11:43.145Z,14.77
2023-05-21T20:14:13.399Z,14.57
2023-05-21T20:16:43.011Z,15.52
2023-05-21T20:19:12.463Z,15.10
2023-05-21T20:21:41.102Z,15.95
2023-05-21T20:24:11.401Z,15.02
2023-05-21T20:26:40.758Z,15.18
2023-05-21T20:29:09.598Z,14.98
2023-05-21T20:31:39.668Z,16.27
2023-05-21T20:34:09.204Z,14.93
2023-05-21T20:36:37.886Z,13.98
2023-05-21T20:39:07.089Z,15.63
2023-05-21T20:41:37.798Z,13.50
2023-05-21T20:44:07.413Z,17.20
2023-05-21T20:46:38.479Z,16.70
2023-05-21T20:49:09.799Z,14.80
2023-05-21T20:51:38.478Z,15.05
2023-05-21T20:54:07.274Z,14.85
2023-05-21T20:56:42.157Z,14.70
2023-05-21T20:59:12.023Z,15.15
2023-05-21T21:01:41.202Z,15.40
2023-05-21T21:04:11.799Z,14.43
2023-05-21T21:06:40.851Z,16.00
2023-05-21T21:09:09.568Z,13.80
2023-05-21T21:11:38.315Z,14.68
2023-05-21T21:14:07.238Z,14.93
2023-05-21T21:16:36.139Z,15.10
2023-05-21T21:19:05.158Z,16.00
2023-05-21T21:21:36.020Z,15.65
2023-05-21T21:24:05.054Z,15.75
2023-05-21T21:26:33.642Z,15.30
2023-05-21T21:29:02.342Z,15.30
2023-05-21T21:31:31.282Z,15.15
2023-05-21T21:33:59.994Z,16.33
2023-05-21T21:36:29.481Z,15.07
2023-05-21T21:38:59.586Z,15.57
2023-05-21T21:41:28.263Z,15.18
2023-05-21T21:43:56.979Z,15.88
2023-05-21T21:46:26.613Z,14.82
2023-05-21T21:48:55.350Z,15.75
2023-05-21T21:51:24.087Z,16.88
2023-05-21T21:53:52.760Z,15.80
2023-05-21T21:56:23.091Z,14.15
2023-05-21T21:58:51.781Z,15.38
2023-05-21T22:01:20.727Z,14.43
2023-05-21T22:03:49.415Z,15.43
2023-05-21T22:06:18.154Z,15.90
2023-05-21T22:08:47.061Z,16.95
2023-05-21T22:11:15.786Z,17.65
2023-05-21T22:13:45.726Z,15.88
2023-05-21T22:16:15.048Z,16.30
2023-05-21T22:18:44.290Z,16.75
2023-05-21T22:21:14.408Z,15.63
2023-05-21T22:23:43.135Z,15.23
2023-05-21T22:26:13.780Z,15.68
2023-05-21T22:28:42.372Z,15.27
2023-05-21T22:31:12.536Z,15.27
2023-05-21T22:33:41.167Z,15.57
2023-05-21T22:36:12.825Z,16.00
2023-05-21T22:38:41.388Z,16.35
2023-05-21T22:41:09.984Z,17.33
2023-05-21T22:43:38.693Z,17.17
2023-05-21T22:46:07.392Z,15.88
2023-05-21T22:48:37.578Z,15.63
2023-05-21T22:51:06.267Z,17.40
2023-05-21T22:53:35.622Z,18.48
2023-05-21T22:56:04.304Z,17.45
2023-05-21T22:58:33.085Z,16.83
2023-05-21T23:01:01.765Z,17.45
2023-05-21T23:03:31.123Z,17.90
2023-05-21T23:06:01.134Z,17.33
2023-05-21T23:08:29.670Z,17.35
2023-05-21T23:11:01.966Z,17.25
2023-05-21T23:13:30.685Z,17.10
2023-05-21T23:15:59.488Z,17.67
2023-05-21T23:18:28.514Z,17.85
2023-05-21T23:20:57.271Z,17.63
2023-05-21T23:23:27.332Z,18.70
2023-05-21T23:25:57.736Z,18.25
2023-05-21T23:28:26.738Z,17.63
2023-05-21T23:30:55.542Z,18.23
2023-05-21T23:33:24.115Z,21.15
2023-05-21T23:35:52.719Z,20.25
2023-05-21T23:38:21.387Z,17.23
2023-05-21T23:40:51.435Z,21.20
2023-05-21T23:43:20.231Z,19.17
2023-05-21T23:45:48.925Z,18.52
2023-05-21T23:48:17.597Z,19.38
2023-05-21T23:50:46.195Z,21.15
2023-05-21T23:53:14.862Z,20.95
2023-05-21T23:55:44.384Z,20.80
2023-05-21T23:58:14.330Z,20.30
